Hackett, Arkansas
Current Conditions -  °F | °C
As of 3:53 AM on Thursday 27 Nov 2014 (Local Time) from KFSM Reporting Station
Clear Clear  
Wind Chill: 26°   Ceiling: Unl
Heat Index: 33°   Visibility: 10mi
Dew Point: 24°   Wind: 8mph
Humidity: 70%   Direction: 350°N
Pressure: 30.45"   Gusts: NA
Location:  35.19°N, 94.41°W
Report Text: KFSM 270953Z AUTO 35007KT 10SM CLR 01/M04 A3045 RMK AO2 SLP312 T00061044
Loading
Personal Weather Stations






























Interactive Weather Map New forecast layout! Learn more

10-Day Weather Forecast

Advertisements
Track Severe Weather on mobile